Time;durP1;ratioP1;P1;durP2;ratioP2;P2;SDS_P1;SDS_P2;PMS_P1;PMS_P2;Temp;Humidity;BMP_temperature;BMP_pressure;BME280_temperature;BME280_humidity;BME280_pressure;Samples;Min_cycle;Max_cycle;Signal;HPM_P1;HPM_P2
2022/03/04 00:00:41;;;;;;;25.67;12.05;;;;;;;1.92;62.66;101743.25;5051597;28;20033;-78
2022/03/04 00:03:06;;;;;;;27.00;11.60;;;;;;;1.88;62.77;101746.88;5051886;28;20647;-78
2022/03/04 00:05:32;;;;;;;25.45;12.13;;;;;;;1.84;63.16;101744.31;5049182;28;20462;-78
2022/03/04 00:07:57;;;;;;;28.05;12.20;;;;;;;1.77;63.38;101746.22;5051737;28;20033;-78
2022/03/04 00:10:22;;;;;;;24.85;12.35;;;;;;;1.72;63.79;101751.63;5032794;28;20040;-78
2022/03/04 00:12:48;;;;;;;25.50;11.60;;;;;;;1.67;63.97;101756.16;5051662;28;20032;-78
2022/03/04 00:15:13;;;;;;;25.52;12.45;;;;;;;1.64;64.33;101760.66;5033170;28;20082;-78
2022/03/04 00:17:38;;;;;;;25.92;11.85;;;;;;;1.52;64.61;101759.13;5052463;28;20043;-78
2022/03/04 00:20:04;;;;;;;28.33;12.30;;;;;;;1.52;64.53;101764.44;5033486;28;20443;-78
2022/03/04 00:22:29;;;;;;;28.52;12.00;;;;;;;1.49;65.17;101773.31;5033591;28;20021;-78
2022/03/04 00:24:54;;;;;;;28.40;14.40;;;;;;;1.52;63.89;101770.63;5051751;28;20071;-78
2022/03/04 00:27:20;;;;;;;25.02;11.88;;;;;;;1.55;63.79;101772.31;5049986;28;20075;-78
2022/03/04 00:29:45;;;;;;;26.65;11.25;;;;;;;1.54;64.34;101767.94;5050600;28;20036;-78
2022/03/04 00:32:10;;;;;;;25.33;12.07;;;;;;;1.51;64.10;101762.72;5045733;28;20041;-78
2022/03/04 00:34:38;;;;;;;27.88;12.80;;;;;;;1.49;64.43;101764.50;5037159;28;20032;-78
2022/03/04 00:37:03;;;;;;;26.58;13.13;;;;;;;1.43;65.41;101772.59;5050535;28;20361;-78
2022/03/04 00:39:28;;;;;;;25.30;11.75;;;;;;;1.49;64.88;101775.09;5032603;28;20035;-78
2022/03/04 00:41:54;;;;;;;24.55;11.13;;;;;;;1.45;64.62;101776.06;5052130;28;20430;-78
2022/03/04 00:44:19;;;;;;;24.90;11.82;;;;;;;1.45;64.36;101773.41;5032517;28;20041;-78
2022/03/04 00:46:44;;;;;;;26.40;12.25;;;;;;;1.41;64.98;101780.56;5050154;28;20025;-78
2022/03/04 00:49:10;;;;;;;25.88;12.50;;;;;;;1.35;65.15;101781.56;5032832;28;20052;-78
2022/03/04 00:51:35;;;;;;;28.25;13.45;;;;;;;1.32;65.15;101781.63;5051509;28;20460;-78
2022/03/04 00:54:01;;;;;;;27.08;13.05;;;;;;;1.30;65.35;101777.25;5051821;28;20025;-78
2022/03/04 00:56:26;;;;;;;26.05;11.73;;;;;;;1.26;65.18;101778.19;5049781;28;20028;-78
2022/03/04 00:58:51;;;;;;;26.00;12.93;;;;;;;1.22;65.38;101777.41;5051090;28;20484;-78
2022/03/04 01:01:17;;;;;;;27.27;12.52;;;;;;;1.15;65.88;101779.28;5031596;28;20124;-78
2022/03/04 01:03:42;;;;;;;25.73;12.18;;;;;;;1.13;65.88;101785.50;5050609;28;20079;-79
2022/03/04 01:06:08;;;;;;;27.25;13.07;;;;;;;1.10;66.09;101783.81;5032159;28;20492;-78
2022/03/04 01:08:34;;;;;;;24.80;11.13;;;;;;;1.05;66.47;101785.66;5032314;28;20025;-78
2022/03/04 01:11:00;;;;;;;25.67;12.55;;;;;;;1.00;66.17;101788.38;5049234;28;20029;-78
2022/03/04 01:13:25;;;;;;;27.25;14.32;;;;;;;0.93;66.64;101786.75;5051380;28;20094;-78
2022/03/04 01:15:50;;;;;;;24.75;12.20;;;;;;;0.87;66.83;101793.03;5050452;28;20416;-78
2022/03/04 01:18:16;;;;;;;26.50;11.48;;;;;;;0.82;67.39;101783.41;5048840;28;20083;-78
2022/03/04 01:20:42;;;;;;;27.98;13.65;;;;;;;0.80;67.20;101788.72;5032873;28;20469;-78
2022/03/04 01:23:08;;;;;;;27.52;12.88;;;;;;;0.73;67.71;101784.44;5032132;28;20044;-78
2022/03/04 01:25:33;;;;;;;25.90;12.38;;;;;;;0.68;68.00;101787.19;5051528;28;20029;-78
2022/03/04 01:27:59;;;;;;;27.13;12.80;;;;;;;0.62;67.95;101782.00;5049560;28;20120;-78
2022/03/04 01:30:24;;;;;;;25.90;13.10;;;;;;;0.57;68.07;101782.97;5049889;28;20055;-78
2022/03/04 01:32:50;;;;;;;24.73;11.90;;;;;;;0.51;68.25;101773.34;5034393;28;20032;-78
2022/03/04 01:35:15;;;;;;;24.63;11.00;;;;;;;0.47;68.52;101774.31;5039837;28;20033;-78
2022/03/04 01:37:41;;;;;;;27.65;11.93;;;;;;;0.42;68.99;101777.03;5049658;28;20522;-78
2022/03/04 01:40:08;;;;;;;28.73;12.05;;;;;;;0.39;68.33;101769.16;5031653;28;20051;-78
2022/03/04 01:42:35;;;;;;;27.52;13.23;;;;;;;0.38;68.97;101769.16;5031649;28;20116;-78
2022/03/04 01:45:01;;;;;;;25.13;11.35;;;;;;;0.33;69.12;101769.25;5031440;28;20036;-78
2022/03/04 01:47:26;;;;;;;27.45;11.57;;;;;;;0.27;69.19;101767.56;5024364;28;20408;-78
2022/03/04 01:49:53;;;;;;;23.65;12.00;;;;;;;0.27;69.37;101762.28;5016737;28;20082;-78
2022/03/04 01:52:18;;;;;;;28.17;13.50;;;;;;;0.21;69.39;101766.81;5045088;28;20036;-78
2022/03/04 01:54:43;;;;;;;26.63;12.80;;;;;;;0.16;70.07;101766.84;5038384;28;20111;-78
2022/03/04 01:57:09;;;;;;;28.42;12.95;;;;;;;0.09;69.92;101758.16;5048474;28;20104;-78
2022/03/04 01:59:34;;;;;;;27.25;12.20;;;;;;;0.03;69.58;101760.00;5050255;28;20155;-78
2022/03/04 02:02:00;;;;;;;28.70;12.98;;;;;;;-0.01;70.28;101764.47;5048828;28;20046;-78
2022/03/04 02:04:25;;;;;;;26.65;12.65;;;;;;;-0.07;70.52;101765.44;5035579;28;20040;-79
2022/03/04 02:06:51;;;;;;;26.35;12.07;;;;;;;-0.11;70.75;101774.31;5030321;28;20052;-78
2022/03/04 02:09:17;;;;;;;28.63;12.18;;;;;;;-0.17;70.65;101782.31;5029670;28;20399;-78
2022/03/04 02:11:44;;;;;;;25.38;12.70;;;;;;;-0.16;70.59;101777.91;5032256;28;20525;-78
2022/03/04 02:14:13;;;;;;;24.77;12.10;;;;;;;-0.16;70.91;101778.78;5054627;28;20033;-78
2022/03/04 02:16:45;;;;;;;25.58;13.10;;;;;;;-0.13;70.81;101775.22;5048586;28;20095;-78
2022/03/04 02:19:11;;;;;;;30.15;13.50;;;;;;;-0.13;70.38;101773.47;5030188;28;20226;-78
2022/03/04 02:21:43;;;;;;;27.25;11.80;;;;;;;-0.13;70.94;101781.38;5031598;28;20123;-78
2022/03/04 02:24:08;;;;;;;26.27;12.43;;;;;;;-0.13;71.23;101772.56;5040582;28;20039;-78
2022/03/04 02:26:33;;;;;;;28.15;13.35;;;;;;;-0.11;70.96;101769.00;5048990;28;20104;-78
2022/03/04 02:28:58;;;;;;;26.02;12.18;;;;;;;-0.12;70.57;101766.41;5048377;28;20021;-78
2022/03/04 02:31:24;;;;;;;26.05;13.23;;;;;;;-0.14;70.64;101762.91;5049049;28;20024;-78
2022/03/04 02:33:50;;;;;;;28.15;13.35;;;;;;;-0.19;70.66;101758.56;5048154;28;20414;-78
2022/03/04 02:36:15;;;;;;;27.20;13.52;;;;;;;-0.19;71.27;101757.66;5048258;28;20029;-78
2022/03/04 02:38:41;;;;;;;27.20;12.52;;;;;;;-0.19;71.07;101758.56;5040477;28;20284;-78
2022/03/04 02:41:07;;;;;;;31.90;14.15;;;;;;;-0.16;70.85;101752.38;5028363;28;20028;-78
2022/03/04 02:43:32;;;;;;;30.02;12.95;;;;;;;-0.16;71.04;101754.13;5049067;28;20104;-78
2022/03/04 02:45:58;;;;;;;30.65;13.88;;;;;;;-0.17;71.27;101753.25;5048985;28;20028;-78
2022/03/04 02:48:23;;;;;;;31.88;14.25;;;;;;;-0.15;70.45;101751.44;5031021;28;20040;-78
2022/03/04 02:50:49;;;;;;;28.52;12.27;;;;;;;-0.11;70.38;101747.00;5048989;28;20060;-78
2022/03/04 02:53:14;;;;;;;29.67;13.43;;;;;;;-0.14;70.82;101747.06;5048399;28;20083;-78
2022/03/04 02:55:39;;;;;;;28.50;12.93;;;;;;;-0.15;70.82;101740.03;5031909;28;20059;-78
2022/03/04 02:58:05;;;;;;;28.20;13.65;;;;;;;-0.16;71.25;101738.25;5029939;28;20029;-79
2022/03/04 03:00:31;;;;;;;29.80;14.07;;;;;;;-0.20;70.98;101743.59;5046073;28;20029;-79
2022/03/04 03:02:56;;;;;;;29.50;13.80;;;;;;;-0.20;70.90;101748.03;5031536;28;20064;-79
2022/03/04 03:05:22;;;;;;;28.38;13.70;;;;;;;-0.27;71.08;101755.13;5030981;28;20136;-78
2022/03/04 03:07:47;;;;;;;29.25;14.85;;;;;;;-0.29;70.94;101751.66;5023573;28;20116;-78
2022/03/04 03:10:13;;;;;;;28.60;13.43;;;;;;;-0.29;70.92;101754.31;5048450;28;20105;-78
2022/03/04 03:12:40;;;;;;;25.63;12.95;;;;;;;-0.33;70.88;101749.94;5047345;28;20056;-78
2022/03/04 03:15:07;;;;;;;27.85;12.70;;;;;;;-0.33;70.74;101752.59;5047981;28;20107;-78
2022/03/04 03:17:32;;;;;;;29.63;13.13;;;;;;;-0.34;70.93;101749.97;5031031;28;20543;-78
2022/03/04 03:19:58;;;;;;;26.50;12.32;;;;;;;-0.32;70.56;101745.53;5045963;28;20107;-78
2022/03/04 03:22:23;;;;;;;27.08;13.60;;;;;;;-0.36;71.06;101750.84;5029981;28;20400;-78
2022/03/04 03:24:48;;;;;;;30.35;13.45;;;;;;;-0.38;71.26;101744.72;5050035;28;20029;-78
2022/03/04 03:27:14;;;;;;;28.73;13.25;;;;;;;-0.39;71.18;101750.03;5029185;28;20082;-78
2022/03/04 03:29:40;;;;;;;30.70;13.75;;;;;;;-0.41;71.34;101750.06;5029797;28;20021;-78
2022/03/04 03:32:06;;;;;;;30.30;12.70;;;;;;;-0.34;70.68;101753.47;5022451;28;20128;-78
2022/03/04 03:34:31;;;;;;;29.67;15.70;;;;;;;-0.28;70.97;101748.13;5032401;28;20422;-78
2022/03/04 03:36:56;;;;;;;29.13;14.30;;;;;;;-0.27;70.75;101756.91;5051939;28;20028;-78
2022/03/04 03:39:21;;;;;;;28.27;13.82;;;;;;;-0.24;70.86;101755.09;5035205;28;20090;-78
2022/03/04 03:41:47;;;;;;;34.28;13.88;;;;;;;-0.26;70.74;101759.53;5051276;28;20033;-78
2022/03/04 03:44:12;;;;;;;29.90;14.18;;;;;;;-0.29;70.93;101759.59;5052132;28;20032;-78
2022/03/04 03:46:37;;;;;;;29.00;13.20;;;;;;;-0.27;70.79;101764.84;5031659;28;20064;-78
2022/03/04 03:49:03;;;;;;;26.98;12.88;;;;;;;-0.24;70.39;101755.09;5052633;28;20047;-78
2022/03/04 03:51:28;;;;;;;29.17;13.43;;;;;;;-0.19;70.48;101755.03;5051122;28;20036;-78
2022/03/04 03:53:53;;;;;;;28.05;12.55;;;;;;;-0.14;70.14;101753.22;5052416;28;20031;-78
2022/03/04 03:56:19;;;;;;;30.27;14.75;;;;;;;-0.12;69.89;101746.13;5050685;28;20037;-78
2022/03/04 03:58:44;;;;;;;28.65;13.05;;;;;;;-0.11;70.13;101754.94;5052140;28;20036;-79
2022/03/04 04:01:09;;;;;;;29.65;14.10;;;;;;;-0.17;70.60;101752.41;5052331;28;20048;-78
2022/03/04 04:03:35;;;;;;;29.40;13.15;;;;;;;-0.21;69.99;101762.97;5050315;28;20017;-79
2022/03/04 04:06:00;;;;;;;29.05;13.75;;;;;;;-0.23;70.26;101761.28;5051279;28;20102;-79
2022/03/04 04:08:25;;;;;;;31.70;15.68;;;;;;;-0.27;70.71;101760.44;5051513;28;20167;-79
2022/03/04 04:10:51;;;;;;;26.30;13.23;;;;;;;-0.30;70.44;101767.53;5050836;28;20491;-79
2022/03/04 04:13:16;;;;;;;30.33;13.52;;;;;;;-0.32;70.45;101764.00;5051445;28;20033;-79
2022/03/04 04:15:41;;;;;;;28.35;13.38;;;;;;;-0.36;70.96;101774.63;5051118;28;20039;-78
2022/03/04 04:18:07;;;;;;;31.73;15.20;;;;;;;-0.35;70.93;101770.25;5050313;28;20025;-78
2022/03/04 04:20:32;;;;;;;27.80;13.65;;;;;;;-0.40;70.99;101782.63;5031671;28;20033;-78
2022/03/04 04:22:57;;;;;;;31.30;14.85;;;;;;;-0.40;71.55;101775.56;5034910;28;20029;-78
2022/03/04 04:25:22;;;;;;;27.52;12.43;;;;;;;-0.42;71.16;101774.72;5050577;28;20065;-78
2022/03/04 04:27:48;;;;;;;30.35;13.75;;;;;;;-0.43;71.63;101772.97;5042634;28;20033;-78
2022/03/04 04:30:13;;;;;;;31.35;15.02;;;;;;;-0.45;71.37;101774.75;5047385;28;20037;-78
2022/03/04 04:32:38;;;;;;;29.63;14.52;;;;;;;-0.44;71.49;101780.91;5033979;28;20090;-78
2022/03/04 04:35:05;;;;;;;30.55;15.13;;;;;;;-0.42;71.68;101780.00;5051026;28;20095;-78
2022/03/04 04:37:30;;;;;;;34.60;15.30;;;;;;;-0.40;71.09;101779.97;5048976;28;20380;-78
2022/03/04 04:39:55;;;;;;;34.55;16.23;;;;;;;-0.42;71.44;101774.72;5052052;28;20029;-78
2022/03/04 04:42:21;;;;;;;29.80;13.55;;;;;;;-0.44;71.31;101776.50;5040779;28;20468;-79
2022/03/04 04:44:46;;;;;;;32.15;14.25;;;;;;;-0.39;71.35;101787.88;5051445;28;20032;-78
2022/03/04 04:47:12;;;;;;;29.27;14.65;;;;;;;-0.32;70.66;101791.31;5051041;28;20033;-78
2022/03/04 04:49:38;;;;;;;32.75;14.80;;;;;;;-0.29;70.60;101786.00;5050752;28;20032;-78
2022/03/04 04:52:05;;;;;;;29.95;14.18;;;;;;;-0.31;70.50;101787.75;5051108;28;20087;-78
2022/03/04 04:54:31;;;;;;;30.33;15.82;;;;;;;-0.27;70.58;101791.25;5049164;28;20124;-78
2022/03/04 04:56:56;;;;;;;31.83;15.27;;;;;;;-0.20;70.12;101785.88;5032463;28;20107;-78
2022/03/04 04:59:21;;;;;;;29.73;13.30;;;;;;;-0.10;69.77;101785.72;5050222;28;20115;-78
2022/03/04 05:01:47;;;;;;;28.88;14.63;;;;;;;-0.08;69.73;101792.75;5050886;28;20040;-78
2022/03/04 05:04:12;;;;;;;31.23;15.27;;;;;;;-0.06;69.69;101780.41;5048883;28;20039;-78
2022/03/04 05:06:37;;;;;;;29.90;14.98;;;;;;;-0.02;69.46;101787.38;5050371;28;20064;-78
2022/03/04 05:09:03;;;;;;;30.17;14.88;;;;;;;0.01;69.35;101782.97;5032147;28;20039;-78
2022/03/04 05:11:28;;;;;;;29.80;14.05;;;;;;;0.03;69.33;101775.88;5028549;28;20033;-78
2022/03/04 05:13:54;;;;;;;28.60;13.63;;;;;;;0.05;69.15;101774.97;5032282;28;20028;-78
2022/03/04 05:16:19;;;;;;;31.40;14.45;;;;;;;0.08;68.87;101779.34;5032335;28;20082;-78
2022/03/04 05:18:44;;;;;;;30.90;15.05;;;;;;;0.09;68.82;101775.78;5047128;28;20025;-78
2022/03/04 05:21:10;;;;;;;28.90;14.70;;;;;;;0.08;68.77;101781.97;5050116;28;20438;-78
2022/03/04 05:26:19;;;;;;;28.50;14.82;;;;;;;0.02;69.04;101784.72;5046097;28;20106;-78
2022/03/04 05:28:44;;;;;;;31.67;15.10;;;;;;;0.01;68.74;101782.97;5028493;28;20026;-78
2022/03/04 05:31:09;;;;;;;29.70;14.68;;;;;;;0.01;68.98;101785.59;5032101;28;20131;-78
2022/03/04 05:33:35;;;;;;;30.38;14.57;;;;;;;0.01;68.75;101783.81;5049632;28;20020;-78
2022/03/04 05:36:00;;;;;;;34.10;15.82;;;;;;;0.02;68.93;101784.72;5049967;28;20392;-78
2022/03/04 05:38:25;;;;;;;30.73;15.27;;;;;;;-0.02;69.10;101782.09;5050741;28;20670;-78
2022/03/04 05:40:50;;;;;;;30.85;15.23;;;;;;;-0.02;69.34;101784.72;5031582;28;20025;-78
2022/03/04 05:43:16;;;;;;;30.35;15.57;;;;;;;-0.08;69.22;101784.81;5027827;28;20033;-78
2022/03/04 05:45:41;;;;;;;33.08;14.85;;;;;;;-0.09;69.23;101798.94;5030893;28;20033;-79
2022/03/04 05:48:07;;;;;;;32.55;15.43;;;;;;;-0.12;69.75;101804.25;5024447;28;20041;-78
2022/03/04 05:50:32;;;;;;;30.80;13.60;;;;;;;-0.18;70.10;101804.34;5034483;28;20053;-78
2022/03/04 05:52:58;;;;;;;29.13;14.25;;;;;;;-0.23;69.88;101808.81;5043835;28;20108;-78
2022/03/04 05:55:24;;;;;;;28.25;13.88;;;;;;;-0.32;69.95;101811.56;5028285;28;20037;-78
2022/03/04 05:57:49;;;;;;;32.00;14.75;;;;;;;-0.40;69.89;101822.22;5049328;28;20104;-78
2022/03/04 06:00:14;;;;;;;30.83;14.00;;;;;;;-0.53;70.74;101821.50;5030560;28;20059;-78
2022/03/04 06:02:39;;;;;;;28.83;15.80;;;;;;;-0.59;70.77;101821.56;5047802;28;20044;-78
2022/03/04 06:05:05;;;;;;;32.90;15.13;;;;;;;-0.64;70.71;101832.19;5033255;28;20510;-79
2022/03/04 06:07:33;;;;;;;28.70;14.02;;;;;;;-0.72;71.42;101824.34;5029059;28;20036;-78
2022/03/04 06:09:59;;;;;;;31.35;14.77;;;;;;;-0.73;71.10;101827.88;5027914;28;20610;-81
2022/03/04 06:12:24;;;;;;;30.45;13.95;;;;;;;-0.78;71.74;101829.69;5018504;28;20115;-78
2022/03/04 06:14:49;;;;;;;31.02;14.30;;;;;;;-0.82;71.86;101819.16;5046634;28;20110;-78
2022/03/04 06:17:16;;;;;;;29.02;15.63;;;;;;;-0.80;71.67;101828.84;5026096;28;20394;-78
2022/03/04 06:19:41;;;;;;;29.52;12.50;;;;;;;-0.75;71.55;101829.69;5029512;28;20089;-78
2022/03/04 06:22:07;;;;;;;32.33;14.18;;;;;;;-0.74;71.46;101830.53;5049048;28;20497;-79
2022/03/04 06:24:32;;;;;;;29.95;14.20;;;;;;;-0.74;72.04;101835.81;5029864;28;20400;-79
2022/03/04 06:26:57;;;;;;;29.67;14.80;;;;;;;-0.76;72.41;101835.84;5044889;28;20044;-80
2022/03/04 06:29:23;;;;;;;35.10;16.13;;;;;;;-0.75;72.07;101834.06;5057928;28;20063;-78
2022/03/04 06:31:48;;;;;;;30.38;15.00;;;;;;;-0.75;72.10;101837.59;5047079;28;20037;-78
2022/03/04 06:34:14;;;;;;;29.25;15.07;;;;;;;-0.74;71.82;101836.69;5045611;28;20472;-79
2022/03/04 06:36:39;;;;;;;31.63;14.85;;;;;;;-0.73;72.24;101840.22;5042180;28;20021;-79
2022/03/04 06:39:04;;;;;;;30.70;15.20;;;;;;;-0.76;72.46;101843.75;5032434;28;20029;-79
2022/03/04 06:41:30;;;;;;;30.38;15.40;;;;;;;-0.77;72.08;101844.63;5051557;28;20040;-79
2022/03/04 06:43:55;;;;;;;31.10;15.48;;;;;;;-0.78;72.56;101845.50;5039044;28;20028;-79
2022/03/04 06:46:20;;;;;;;31.70;16.55;;;;;;;-0.77;72.44;101842.00;5040488;28;20542;-79
2022/03/04 06:48:45;;;;;;;30.88;15.05;;;;;;;-0.77;72.85;101849.91;5049271;28;20044;-79
2022/03/04 06:51:11;;;;;;;32.30;14.65;;;;;;;-0.78;73.07;101845.50;5058484;28;20117;-78
2022/03/04 06:53:36;;;;;;;35.83;15.75;;;;;;;-0.74;72.80;101852.50;5051356;28;20062;-78
2022/03/04 06:56:02;;;;;;;32.08;16.65;;;;;;;-0.74;72.75;101852.50;5032059;28;20083;-78
2022/03/04 06:58:27;;;;;;;31.58;16.92;;;;;;;-0.70;72.70;101861.28;5028145;28;20028;-79
2022/03/04 07:00:53;;;;;;;28.60;14.20;;;;;;;-0.63;72.82;101864.72;5028975;28;20116;-78
2022/03/04 07:03:19;;;;;;;37.85;16.52;;;;;;;-0.60;72.48;101865.59;5037189;28;20032;-78
2022/03/04 07:05:45;;;;;;;30.13;15.10;;;;;;;-0.57;72.75;101870.84;5055892;28;20045;-78
2022/03/04 07:08:12;;;;;;;32.28;15.82;;;;;;;-0.54;72.37;101867.28;5036726;28;20021;-78
2022/03/04 07:10:38;;;;;;;47.47;17.35;;;;;;;-0.50;72.26;101876.91;5055777;28;20029;-78
2022/03/04 07:13:04;;;;;;;31.15;15.23;;;;;;;-0.40;72.14;101888.25;5048327;28;20101;-78
2022/03/04 07:15:30;;;;;;;34.92;16.13;;;;;;;-0.32;72.41;101888.16;5049703;28;20037;-78
2022/03/04 07:17:55;;;;;;;31.38;15.52;;;;;;;-0.26;72.11;101893.41;5031291;28;20066;-78
2022/03/04 07:20:20;;;;;;;32.97;16.40;;;;;;;-0.17;71.71;101901.22;5048393;28;20107;-78
2022/03/04 07:22:46;;;;;;;32.00;16.13;;;;;;;-0.05;71.33;101900.19;5051155;28;20032;-78
2022/03/04 07:25:13;;;;;;;31.52;16.08;;;;;;;0.05;70.63;101890.38;5051523;28;20021;-79
2022/03/04 07:27:39;;;;;;;33.95;16.80;;;;;;;0.15;70.62;101892.00;5034237;28;20025;-78
2022/03/04 07:30:08;;;;;;;34.88;15.68;;;;;;;0.24;70.45;101885.72;5051456;28;20027;-76
2022/03/04 07:32:33;;;;;;;35.95;15.90;;;;;;;0.31;70.24;101890.91;5065983;28;20377;-77
2022/03/04 07:34:59;;;;;;;33.10;16.60;;;;;;;0.42;69.65;101888.09;5056873;28;20087;-77
2022/03/04 07:37:24;;;;;;;30.98;15.80;;;;;;;0.51;69.46;101888.00;5051389;28;20547;-78
2022/03/04 07:39:50;;;;;;;35.20;16.80;;;;;;;0.62;69.26;101892.25;5052606;28;20086;-76
2022/03/04 07:42:15;;;;;;;32.60;16.77;;;;;;;0.72;68.57;101892.97;5053357;28;20033;-77
2022/03/04 07:44:40;;;;;;;35.17;16.85;;;;;;;0.80;68.81;101885.78;5052029;28;20532;-76
2022/03/04 07:47:06;;;;;;;33.17;16.85;;;;;;;0.88;68.38;101889.19;5021995;28;20029;-76
2022/03/04 07:49:31;;;;;;;32.17;14.65;;;;;;;0.95;67.96;101888.19;5052420;28;20032;-76
2022/03/04 07:51:56;;;;;;;32.13;17.13;;;;;;;1.02;68.06;101889.81;5063374;28;20032;-76
2022/03/04 07:54:22;;;;;;;35.50;16.45;;;;;;;1.11;67.47;101890.56;5029243;28;20457;-76
2022/03/04 07:56:47;;;;;;;33.25;17.63;;;;;;;1.20;66.70;101890.41;5050767;28;20028;-76
2022/03/04 07:59:12;;;;;;;33.03;16.08;;;;;;;1.25;67.25;101888.56;5050174;28;20025;-76
2022/03/04 08:01:37;;;;;;;32.28;15.93;;;;;;;1.31;66.84;101888.44;5051877;28;20035;-79
2022/03/04 08:04:05;;;;;;;32.83;17.10;;;;;;;1.37;66.73;101890.97;5031756;28;20021;-78
2022/03/04 08:06:30;;;;;;;27.70;14.40;;;;;;;1.43;65.91;101889.13;5034433;28;20045;-78
2022/03/04 08:08:56;;;;;;;30.33;16.17;;;;;;;1.52;66.29;101892.50;5032103;28;20036;-78
2022/03/04 08:11:21;;;;;;;29.98;15.55;;;;;;;1.58;65.65;101886.19;5030695;28;20035;-78
2022/03/04 08:13:46;;;;;;;34.00;16.27;;;;;;;1.67;66.00;101891.31;5048090;28;20033;-78
2022/03/04 08:16:11;;;;;;;38.08;15.60;;;;;;;1.73;65.62;101893.84;5047201;28;20029;-78
2022/03/04 08:18:37;;;;;;;32.03;17.23;;;;;;;1.82;65.45;101894.56;5033916;28;20052;-78
2022/03/04 08:21:03;;;;;;;33.20;17.52;;;;;;;1.87;64.75;101896.22;5052138;28;20036;-78
2022/03/04 08:23:29;;;;;;;29.33;14.88;;;;;;;1.94;64.40;101896.09;5034185;28;20032;-78
2022/03/04 08:25:56;;;;;;;34.58;16.02;;;;;;;2.03;64.24;101894.13;5051371;28;20468;-78
2022/03/04 08:28:22;;;;;;;31.27;15.50;;;;;;;2.08;63.29;101900.22;5033363;28;20028;-78
2022/03/04 08:30:48;;;;;;;31.13;15.18;;;;;;;2.15;63.63;101900.94;5050847;28;20464;-79
2022/03/04 08:33:13;;;;;;;29.75;15.82;;;;;;;2.20;63.24;101900.88;5054055;28;20028;-79
2022/03/04 08:35:38;;;;;;;35.17;15.23;;;;;;;2.25;63.22;101904.28;5041249;28;20044;-78
2022/03/04 08:38:03;;;;;;;32.70;16.27;;;;;;;2.34;63.48;101913.81;5043761;28;20033;-78
2022/03/04 08:40:29;;;;;;;29.02;15.98;;;;;;;2.39;62.89;101909.28;5029064;28;20031;-79
2022/03/04 08:42:54;;;;;;;29.75;16.75;;;;;;;2.46;63.24;101913.56;5051321;28;20029;-78
2022/03/04 08:45:19;;;;;;;30.45;14.85;;;;;;;2.51;62.28;101924.06;5050579;28;20068;-79
2022/03/04 08:47:46;;;;;;;33.67;17.23;;;;;;;2.57;62.33;101915.97;5033167;28;20384;-79
2022/03/04 08:50:13;;;;;;;34.63;17.63;;;;;;;2.64;62.06;101922.03;5050626;28;20024;-79
2022/03/04 08:52:38;;;;;;;31.27;16.75;;;;;;;2.71;62.12;101918.28;5033818;28;20534;-79
2022/03/04 08:55:13;;;;;;;30.88;15.93;;;;;;;2.77;61.93;101926.13;5033139;28;20059;-78
2022/03/04 08:57:39;;;;;;;38.05;15.57;;;;;;;2.83;62.02;101925.97;5048323;28;20445;-78
2022/03/04 09:00:05;;;;;;;32.05;14.85;;;;;;;2.89;61.99;101920.50;5050838;28;20027;-78
2022/03/04 09:02:30;;;;;;;29.40;15.02;;;;;;;2.96;61.51;101924.78;5031435;28;20171;-77
2022/03/04 09:04:55;;;;;;;31.48;16.15;;;;;;;3.03;61.35;101924.63;5052097;28;20494;-78
2022/03/04 09:07:20;;;;;;;29.65;15.95;;;;;;;3.09;60.45;101930.66;5052726;28;20029;-78
2022/03/04 09:09:46;;;;;;;29.92;16.70;;;;;;;3.16;60.16;101920.75;5071264;28;20017;-78
2022/03/04 09:12:11;;;;;;;29.48;15.65;;;;;;;3.22;60.08;101927.69;5069419;28;20055;-78
2022/03/04 09:14:36;;;;;;;30.15;15.00;;;;;;;3.28;59.29;101922.22;5071414;28;20032;-78
2022/03/04 09:17:02;;;;;;;31.33;15.50;;;;;;;3.35;59.84;101928.25;5068907;28;20047;-77
2022/03/04 09:19:30;;;;;;;35.47;16.80;;;;;;;3.39;59.17;101925.47;5071762;28;20036;-77
2022/03/04 09:21:55;;;;;;;31.05;16.00;;;;;;;3.46;59.33;101923.53;5053859;28;20056;-78
2022/03/04 09:24:21;;;;;;;34.92;16.98;;;;;;;3.53;59.06;101918.91;5032782;28;20052;-78
2022/03/04 09:26:46;;;;;;;31.92;16.17;;;;;;;3.59;59.22;101921.44;5029645;28;20429;-78
2022/03/04 09:29:11;;;;;;;35.28;17.23;;;;;;;3.65;59.00;101918.59;4996301;28;20041;-78
2022/03/04 09:31:36;;;;;;;27.08;13.57;;;;;;;3.72;58.17;101920.19;5029756;28;20030;-78
2022/03/04 09:34:02;;;;;;;32.45;15.68;;;;;;;3.75;58.62;101912.13;5036580;28;20029;-78
2022/03/04 09:36:27;;;;;;;28.95;15.80;;;;;;;3.79;58.95;101912.91;5066361;28;20043;-78
2022/03/04 09:38:53;;;;;;;28.13;14.30;;;;;;;3.82;58.56;101912.81;5050776;28;20017;-78
2022/03/04 09:41:19;;;;;;;32.15;17.33;;;;;;;3.88;58.55;101914.44;5021842;28;20040;-78
2022/03/04 09:43:44;;;;;;;31.35;16.10;;;;;;;3.95;58.13;101916.00;5013074;28;20021;-78
2022/03/04 09:46:10;;;;;;;29.98;15.40;;;;;;;3.99;57.91;101910.53;5029998;28;20029;-78
2022/03/04 09:48:40;;;;;;;29.77;15.27;;;;;;;4.06;57.51;101913.91;5030564;28;20072;-78
2022/03/04 09:51:07;;;;;;;28.35;16.05;;;;;;;4.13;57.19;101909.25;5030169;28;20480;-78
2022/03/04 09:53:33;;;;;;;35.00;17.15;;;;;;;4.18;57.45;101904.69;5030628;28;20025;-78
2022/03/04 09:55:58;;;;;;;35.25;16.23;;;;;;;4.25;56.95;101908.06;5029521;28;20075;-78
2022/03/04 09:58:24;;;;;;;32.63;17.02;;;;;;;4.31;57.28;101906.06;5011663;28;20362;-78
2022/03/04 10:00:49;;;;;;;32.28;16.42;;;;;;;4.37;57.00;101913.84;5012221;28;20076;-78
2022/03/04 10:03:21;;;;;;;31.73;15.77;;;;;;;4.44;57.33;101909.25;5040514;28;20082;-78
2022/03/04 10:05:55;;;;;;;31.23;15.95;;;;;;;4.52;56.88;101903.66;5069822;28;20411;-78
2022/03/04 10:08:21;;;;;;;32.33;16.33;;;;;;;4.59;56.14;101901.69;5035029;28;20498;-78
2022/03/04 10:10:55;;;;;;;29.38;16.38;;;;;;;4.68;56.70;101901.41;5070557;28;20041;-78
2022/03/04 10:13:44;;;;;;;30.10;15.95;;;;;;;4.75;56.58;101902.94;5051117;28;20111;-78
2022/03/04 10:16:11;;;;;;;32.20;17.05;;;;;;;4.80;55.76;101901.03;5069234;28;20026;-78
2022/03/04 10:18:36;;;;;;;30.77;16.23;;;;;;;4.86;55.55;101899.94;5053196;28;20429;-78
2022/03/04 10:21:02;;;;;;;33.80;17.02;;;;;;;4.92;55.81;101906.84;5031364;28;20171;-78
2022/03/04 10:23:28;;;;;;;31.17;17.10;;;;;;;4.99;56.20;101917.28;5028478;28;20358;-78
2022/03/04 10:25:58;;;;;;;30.33;16.48;;;;;;;5.04;56.08;101912.66;5035012;28;20476;-78
2022/03/04 10:28:26;;;;;;;30.63;16.88;;;;;;;5.14;55.66;101917.66;5049062;28;20029;-78
2022/03/04 10:30:54;;;;;;;31.23;16.50;;;;;;;5.24;54.49;101928.00;5048744;28;20025;-78
2022/03/04 10:33:22;;;;;;;33.90;17.80;;;;;;;5.34;54.31;101917.00;5048908;28;20029;-78
2022/03/04 10:36:06;;;;;;;32.30;18.23;;;;;;;5.39;55.53;101915.94;5049325;28;20408;-78
2022/03/04 10:38:33;;;;;;;31.08;17.05;;;;;;;5.47;54.47;101913.00;5031168;28;20040;-72
2022/03/04 10:40:58;;;;;;;29.73;16.38;;;;;;;5.52;54.18;101915.50;5048319;28;20570;-77
2022/03/04 10:43:31;;;;;;;32.10;18.00;;;;;;;5.58;54.30;101907.31;5048534;28;20055;-78
2022/03/04 10:46:02;;;;;;;32.42;16.55;;;;;;;5.67;54.48;101914.09;5049332;28;20024;-77
2022/03/04 10:48:29;;;;;;;29.88;16.27;;;;;;;5.71;56.48;101905.03;5031654;28;20037;-77
2022/03/04 10:50:56;;;;;;;30.20;16.65;;;;;;;5.72;54.55;101896.13;5049449;28;20021;-77
2022/03/04 10:53:22;;;;;;;33.38;16.65;;;;;;;5.75;55.39;101904.00;5048742;28;20040;-77
2022/03/04 10:55:54;;;;;;;28.52;16.08;;;;;;;5.82;53.92;101897.53;5031019;28;20115;-78
2022/03/04 10:58:27;;;;;;;29.67;16.80;;;;;;;5.88;54.21;101907.09;5047652;28;20029;-77
2022/03/04 11:00:54;;;;;;;29.50;15.88;;;;;;;5.94;55.46;101899.75;5048974;28;20025;-73
2022/03/04 11:03:22;;;;;;;30.20;15.73;;;;;;;6.03;53.60;101900.38;5054842;28;20036;-72
2022/03/04 11:05:49;;;;;;;31.42;17.48;;;;;;;6.09;52.32;101895.69;5069259;28;20573;-73
2022/03/04 11:08:15;;;;;;;28.95;14.63;;;;;;;6.15;51.57;101899.03;5046410;28;20034;-69
2022/03/04 11:10:41;;;;;;;34.22;15.68;;;;;;;6.23;52.59;101897.81;5030529;28;20029;-78